ENSD/SDN METAR and TAF weather

Enter ICAO airport designator
Station Type Date Time Source
ENSD METAR 2019/02/23 13:50 UTC NOAA

ENSD 231350Z VRB08KT 9999 FEW058 BKN160 15/02 Q1027 RMK WIND 1138FT 20012G26KT


Station Type Date Time Source
ENSD Decoded METAR 2019/02/23 13:50 UTC NOAA

Sandane / Anda, Norway (ENSD) 61-50N 006-07E 60M
Feb 23, 2019 - 08:50 AM EST / 2019.02.23 1350 UTC
Wind: Variable at 9 MPH (8 KT):0
Visibility: greater than 7 mile(s):0
Sky conditions: mostly cloudy
Temperature: 59 F (15 C)
Dew Point: 35 F (2 C)
Relative Humidity: 41%
Pressure (altimeter): 30.33 in. Hg (1027 hPa)
ob: ENSD 231350Z VRB08KT 9999 FEW058 BKN160 15/02 Q1027 RMK WIND 1138FT 20012G26KT
cycle: 14

Station Type Date Time Source
ENSD TAF UTC NOAA

Error!


Example: see airport list